createdAt,value
2022-08-27T00:00:53.238Z,89.38
2022-08-27T00:03:23.059Z,89.24
2022-08-27T00:05:52.929Z,89.49
2022-08-27T00:08:25.494Z,89.56
2022-08-27T00:10:55.291Z,89.67
2022-08-27T00:13:25.064Z,89.74
2022-08-27T00:15:54.835Z,89.93
2022-08-27T00:18:24.631Z,89.76
2022-08-27T00:20:54.387Z,89.80
2022-08-27T00:23:26.942Z,89.76
2022-08-27T00:25:56.824Z,89.89
2022-08-27T00:28:29.125Z,89.81
2022-08-27T00:30:59.820Z,89.91
2022-08-27T00:33:31.736Z,89.84
2022-08-27T00:36:01.599Z,89.88
2022-08-27T00:38:34.418Z,89.99
2022-08-27T00:41:04.185Z,89.94
2022-08-27T00:43:48.681Z,89.90
2022-08-27T00:46:24.685Z,89.99
2022-08-27T00:48:56.957Z,89.88
2022-08-27T00:51:28.132Z,89.89
2022-08-27T00:54:02.717Z,89.91
2022-08-27T00:56:37.624Z,89.99
2022-08-27T00:59:08.079Z,90.06
2022-08-27T01:01:58.371Z,89.96
2022-08-27T01:04:28.187Z,89.99
2022-08-27T01:06:58.470Z,90.06
2022-08-27T01:09:31.510Z,89.99
2022-08-27T01:12:01.938Z,90.08
2022-08-27T01:14:32.157Z,90.20
2022-08-27T01:17:05.434Z,90.32
2022-08-27T01:19:41.935Z,90.22
2022-08-27T01:22:20.416Z,90.39
2022-08-27T01:24:58.699Z,90.50
2022-08-27T01:27:31.527Z,90.67
2022-08-27T01:30:01.752Z,90.73
2022-08-27T01:32:36.624Z,90.69
2022-08-27T01:35:09.755Z,90.74
2022-08-27T01:37:40.821Z,90.82
2022-08-27T01:40:14.286Z,90.85
2022-08-27T01:42:49.534Z,91.07
2022-08-27T01:45:25.795Z,90.93
2022-08-27T01:47:55.983Z,91.19
2022-08-27T01:50:29.524Z,91.19
2022-08-27T01:52:59.639Z,91.37
2022-08-27T01:55:32.032Z,91.58
2022-08-27T01:58:01.817Z,91.42
2022-08-27T02:00:34.956Z,91.68
2022-08-27T02:03:06.086Z,91.71
2022-08-27T02:05:44.745Z,91.86
2022-08-27T02:08:16.087Z,92.02
2022-08-27T02:10:50.379Z,92.05
2022-08-27T02:13:21.187Z,92.14
2022-08-27T02:15:51.082Z,92.23
2022-08-27T02:18:21.186Z,92.09
2022-08-27T02:20:51.729Z,92.03
2022-08-27T02:23:21.995Z,92.15
2022-08-27T02:25:54.369Z,92.04
2022-08-27T02:28:24.166Z,92.07
2022-08-27T02:30:53.903Z,91.89
2022-08-27T02:33:23.660Z,91.84
2022-08-27T02:35:53.420Z,91.93
2022-08-27T02:38:25.774Z,91.64
2022-08-27T02:40:59.056Z,91.66
2022-08-27T02:43:28.843Z,91.43
2022-08-27T02:45:58.583Z,91.54
2022-08-27T02:48:28.423Z,91.22
2022-08-27T02:50:58.245Z,91.11
2022-08-27T02:53:28.684Z,91.00
2022-08-27T02:56:01.483Z,90.84
2022-08-27T02:58:31.283Z,90.67
2022-08-27T03:01:01.358Z,90.59
2022-08-27T03:03:31.747Z,90.47
2022-08-27T03:06:01.951Z,90.28
2022-08-27T03:08:32.539Z,90.28
2022-08-27T03:11:25.808Z,90.33
2022-08-27T03:13:56.175Z,90.14
2022-08-27T03:16:26.080Z,90.10
2022-08-27T03:18:53.412Z,90.17
2022-08-27T03:21:26.556Z,90.20
2022-08-27T03:23:57.128Z,90.17
2022-08-27T03:26:30.628Z,90.24
2022-08-27T03:29:01.381Z,90.27
2022-08-27T03:31:31.467Z,90.39
2022-08-27T03:34:03.951Z,90.40
2022-08-27T03:36:34.413Z,90.40
2022-08-27T03:39:04.231Z,90.41
2022-08-27T03:41:43.859Z,90.40
2022-08-27T03:44:25.089Z,90.44
2022-08-27T03:46:55.465Z,90.60
2022-08-27T03:49:26.183Z,90.70
2022-08-27T03:51:56.506Z,90.52
2022-08-27T03:54:26.351Z,90.89
2022-08-27T03:56:58.715Z,90.80
2022-08-27T03:59:28.470Z,91.04
2022-08-27T04:01:58.314Z,91.08
2022-08-27T04:04:28.674Z,91.28
2022-08-27T04:06:59.066Z,91.37
2022-08-27T04:09:29.299Z,91.30
2022-08-27T04:12:01.756Z,91.54
2022-08-27T04:14:31.543Z,91.63
2022-08-27T04:17:01.392Z,91.90
2022-08-27T04:19:33.332Z,91.99
2022-08-27T04:22:04.632Z,92.26
2022-08-27T04:24:36.302Z,92.53
2022-08-27T04:27:09.336Z,92.55
2022-08-27T04:29:39.090Z,92.51
2022-08-27T04:32:10.122Z,92.81
2022-08-27T04:34:39.961Z,93.10
2022-08-27T04:37:10.074Z,93.20
2022-08-27T04:39:39.868Z,93.26
2022-08-27T04:42:12.333Z,93.31
2022-08-27T04:44:42.140Z,93.47
2022-08-27T04:47:11.893Z,93.41
2022-08-27T04:49:42.117Z,93.46
2022-08-27T04:52:12.143Z,93.60
2022-08-27T04:54:42.254Z,93.53
2022-08-27T04:57:14.648Z,93.45
2022-08-27T04:59:44.441Z,93.29
2022-08-27T05:02:14.640Z,93.24
2022-08-27T05:04:46.223Z,93.31
2022-08-27T05:07:16.056Z,93.26
2022-08-27T05:09:45.817Z,93.27
2022-08-27T05:12:18.166Z,93.13
2022-08-27T05:14:47.951Z,93.32
2022-08-27T05:17:17.709Z,93.09
2022-08-27T05:19:47.464Z,92.80
2022-08-27T05:22:17.252Z,92.78
2022-08-27T05:24:50.221Z,92.49
2022-08-27T05:27:22.824Z,92.54
2022-08-27T05:29:52.564Z,92.33
2022-08-27T05:32:22.295Z,92.30
2022-08-27T05:34:52.049Z,92.21
2022-08-27T05:37:22.135Z,92.50
2022-08-27T05:39:51.988Z,92.38
2022-08-27T05:42:24.409Z,92.44
2022-08-27T05:44:54.401Z,92.45
2022-08-27T05:47:24.278Z,92.75
2022-08-27T05:49:54.995Z,92.81
2022-08-27T05:52:24.825Z,92.95
2022-08-27T05:54:55.190Z,93.11
2022-08-27T05:57:27.535Z,93.34
2022-08-27T06:00:09.735Z,93.36
2022-08-27T06:02:46.268Z,93.63
2022-08-27T06:05:16.093Z,93.74
2022-08-27T06:07:45.885Z,93.78
2022-08-27T06:10:16.342Z,93.96
2022-08-27T06:12:48.905Z,94.08
2022-08-27T06:15:18.711Z,93.83
2022-08-27T06:17:48.502Z,93.84
2022-08-27T06:20:20.792Z,93.85
2022-08-27T06:22:50.563Z,93.99
2022-08-27T06:25:20.481Z,93.93
2022-08-27T06:27:52.983Z,93.79
2022-08-27T06:30:22.788Z,93.76
2022-08-27T06:32:52.683Z,93.71
2022-08-27T06:35:22.574Z,93.70
2022-08-27T06:37:53.410Z,93.62
2022-08-27T06:40:23.424Z,93.50
2022-08-27T06:42:55.958Z,93.37
2022-08-27T06:45:25.762Z,93.16
2022-08-27T06:47:56.063Z,92.85
2022-08-27T06:50:27.493Z,92.59
2022-08-27T06:52:57.342Z,92.51
2022-08-27T06:55:27.120Z,92.25
2022-08-27T06:57:59.506Z,91.95
2022-08-27T07:00:29.311Z,91.75
2022-08-27T07:02:59.154Z,91.61
2022-08-27T07:05:29.619Z,91.25
2022-08-27T07:07:59.400Z,91.22
2022-08-27T07:10:30.191Z,91.21
2022-08-27T07:13:03.083Z,90.97
2022-08-27T07:15:33.093Z,91.02
2022-08-27T07:18:05.003Z,90.92
2022-08-27T07:20:35.475Z,90.99
2022-08-27T07:23:09.379Z,90.91
2022-08-27T07:25:44.287Z,90.67
2022-08-27T07:28:16.667Z,90.29
2022-08-27T07:30:46.791Z,89.64
2022-08-27T07:33:16.653Z,89.39
2022-08-27T07:35:49.135Z,88.99
2022-08-27T07:38:20.020Z,88.67
2022-08-27T07:40:49.810Z,88.15
2022-08-27T07:43:34.728Z,87.83
2022-08-27T07:46:05.684Z,87.05
2022-08-27T07:48:36.480Z,86.29
2022-08-27T07:51:08.672Z,85.50
2022-08-27T07:53:38.519Z,84.72
2022-08-27T07:56:09.494Z,84.01
2022-08-27T07:58:42.818Z,83.70
2022-08-27T08:01:13.868Z,83.30
2022-08-27T08:03:44.516Z,83.38
2022-08-27T08:06:18.119Z,83.54
2022-08-27T08:08:48.175Z,83.68
2022-08-27T08:11:20.678Z,83.79
2022-08-27T08:13:53.161Z,83.52
2022-08-27T08:16:23.112Z,83.06
2022-08-27T08:18:52.916Z,82.84
2022-08-27T08:21:22.994Z,82.47
2022-08-27T08:23:52.884Z,82.39
2022-08-27T08:26:23.267Z,82.22
2022-08-27T08:28:55.668Z,82.29
2022-08-27T08:31:27.534Z,82.32
2022-08-27T08:33:57.375Z,82.49
2022-08-27T08:36:27.151Z,82.20
2022-08-27T08:38:57.219Z,82.46
2022-08-27T08:41:41.647Z,82.44
2022-08-27T08:44:19.806Z,82.30
2022-08-27T08:46:55.982Z,82.08
2022-08-27T08:49:52.697Z,81.65
2022-08-27T08:52:32.279Z,81.48
2022-08-27T08:55:13.191Z,81.16
2022-08-27T08:57:51.695Z,80.70
2022-08-27T09:00:24.482Z,80.24
2022-08-27T09:02:57.503Z,80.02
2022-08-27T09:05:28.219Z,79.71
2022-08-27T09:08:29.208Z,79.44
2022-08-27T09:11:01.861Z,78.75
2022-08-27T09:13:35.939Z,78.53
2022-08-27T09:16:09.324Z,78.22
2022-08-27T09:18:42.541Z,78.05
2022-08-27T09:21:27.986Z,77.76
2022-08-27T09:24:07.031Z,77.81
2022-08-27T09:26:39.582Z,77.49
2022-08-27T09:29:22.086Z,76.90
2022-08-27T09:31:58.851Z,76.81
2022-08-27T09:34:30.479Z,76.35
2022-08-27T09:37:09.168Z,76.31
2022-08-27T09:39:47.311Z,76.11
2022-08-27T09:42:30.420Z,75.48
2022-08-27T09:45:00.950Z,74.90
2022-08-27T09:47:33.310Z,74.58
2022-08-27T09:50:10.750Z,74.73
2022-08-27T09:52:55.216Z,74.28
2022-08-27T09:55:46.880Z,74.13
2022-08-27T09:58:21.992Z,74.10
2022-08-27T10:01:01.175Z,74.03
2022-08-27T10:03:33.965Z,73.98
2022-08-27T10:06:03.794Z,74.09
2022-08-27T10:08:41.279Z,74.23
2022-08-27T10:11:17.573Z,74.23
2022-08-27T10:13:54.774Z,74.16
2022-08-27T10:16:44.634Z,73.97
2022-08-27T10:19:28.468Z,73.92
2022-08-27T10:22:07.830Z,73.90
2022-08-27T10:24:50.828Z,73.41
2022-08-27T10:27:30.397Z,73.62
2022-08-27T10:30:07.652Z,73.93
2022-08-27T10:33:03.993Z,74.44
2022-08-27T10:35:47.818Z,74.80
2022-08-27T10:38:26.439Z,74.86
2022-08-27T10:41:03.259Z,75.19
2022-08-27T10:44:01.375Z,75.43
2022-08-27T10:46:50.953Z,75.71
2022-08-27T10:49:29.574Z,75.93
2022-08-27T10:52:16.984Z,75.89
2022-08-27T10:54:52.450Z,75.99
2022-08-27T10:57:51.738Z,76.33
2022-08-27T11:00:22.633Z,76.35
2022-08-27T11:02:57.293Z,76.33
2022-08-27T11:05:31.978Z,76.52
2022-08-27T11:08:12.849Z,76.39
2022-08-27T11:10:48.749Z,76.36
2022-08-27T11:13:24.290Z,76.20
2022-08-27T11:15:57.724Z,76.14
2022-08-27T11:18:43.202Z,76.20
2022-08-27T11:21:17.482Z,76.05
2022-08-27T11:23:55.424Z,76.01
2022-08-27T11:26:25.212Z,75.93
2022-08-27T11:28:58.365Z,75.77
2022-08-27T11:31:35.917Z,75.49
2022-08-27T11:34:13.139Z,75.53
2022-08-27T11:37:02.882Z,75.18
2022-08-27T11:39:51.979Z,75.16
2022-08-27T11:42:36.390Z,75.21
2022-08-27T11:45:11.323Z,74.97
2022-08-27T11:47:41.249Z,74.76
2022-08-27T11:50:21.116Z,74.80
2022-08-27T11:53:00.983Z,74.89
2022-08-27T11:55:37.090Z,74.83
2022-08-27T11:58:14.100Z,74.50
2022-08-27T12:00:45.874Z,74.49
2022-08-27T12:03:28.935Z,74.24
2022-08-27T12:06:20.703Z,74.17
2022-08-27T12:08:50.550Z,74.12
2022-08-27T12:11:45.009Z,74.00
2022-08-27T12:14:32.503Z,74.09
2022-08-27T12:17:10.121Z,74.18
2022-08-27T12:19:52.271Z,74.09
2022-08-27T12:22:59.560Z,74.34
2022-08-27T12:25:30.450Z,74.28
2022-08-27T12:28:06.138Z,74.36
2022-08-27T12:30:38.405Z,74.34
2022-08-27T12:33:15.581Z,74.51
2022-08-27T12:35:50.180Z,74.47
2022-08-27T12:38:23.076Z,74.20
2022-08-27T12:40:57.867Z,74.22
2022-08-27T12:43:33.585Z,74.23
2022-08-27T12:46:06.060Z,74.06
2022-08-27T12:48:39.764Z,73.97
2022-08-27T12:51:16.095Z,73.96
2022-08-27T12:53:48.007Z,73.75
2022-08-27T12:56:54.283Z,73.57
2022-08-27T12:59:46.404Z,73.65
2022-08-27T13:02:31.376Z,73.50
2022-08-27T13:05:10.108Z,73.57
2022-08-27T13:07:44.402Z,73.51
2022-08-27T13:10:17.438Z,73.47
2022-08-27T13:12:48.727Z,73.26
2022-08-27T13:15:22.639Z,73.18
2022-08-27T13:17:52.883Z,72.99
2022-08-27T13:20:26.830Z,73.05
2022-08-27T13:22:57.382Z,72.83
2022-08-27T13:25:31.029Z,72.85
2022-08-27T13:28:08.253Z,72.32
2022-08-27T13:30:45.228Z,72.32
2022-08-27T13:33:19.350Z,71.95
2022-08-27T13:35:49.217Z,71.99
2022-08-27T13:38:20.559Z,72.03
2022-08-27T13:41:01.170Z,72.15
2022-08-27T13:43:38.636Z,72.20
2022-08-27T13:46:16.403Z,71.88
2022-08-27T13:48:48.461Z,71.89
2022-08-27T13:51:18.816Z,71.82
2022-08-27T13:54:04.624Z,71.81
2022-08-27T13:56:37.407Z,71.59
2022-08-27T13:59:15.072Z,71.73
2022-08-27T14:01:58.737Z,71.80
2022-08-27T14:04:30.626Z,71.83
2022-08-27T14:07:00.405Z,72.22
2022-08-27T14:09:32.259Z,72.51
2022-08-27T14:12:03.990Z,72.73
2022-08-27T14:14:39.058Z,73.13
2022-08-27T14:17:29.083Z,73.20
2022-08-27T14:20:04.423Z,73.45
2022-08-27T14:22:35.761Z,73.75
2022-08-27T14:25:05.725Z,73.77
2022-08-27T14:27:38.186Z,73.89
2022-08-27T14:30:10.858Z,74.02
2022-08-27T14:32:44.270Z,74.10
2022-08-27T14:35:15.198Z,74.34
2022-08-27T14:37:55.926Z,74.46
2022-08-27T14:40:25.854Z,74.38
2022-08-27T14:42:56.289Z,74.45
2022-08-27T14:45:26.155Z,74.80
2022-08-27T14:48:02.161Z,74.75
2022-08-27T14:50:32.439Z,74.85
2022-08-27T14:53:02.230Z,75.11
2022-08-27T14:55:32.030Z,75.11
2022-08-27T14:58:02.211Z,75.22
2022-08-27T15:00:32.222Z,75.03
2022-08-27T15:03:04.647Z,74.92
2022-08-27T15:05:34.457Z,74.73
2022-08-27T15:08:04.576Z,74.83
2022-08-27T15:10:34.934Z,74.75
2022-08-27T15:13:05.540Z,74.53
2022-08-27T15:15:35.347Z,74.54
2022-08-27T15:18:08.930Z,74.44
2022-08-27T15:20:39.183Z,74.21
2022-08-27T15:23:09.067Z,73.86
2022-08-27T15:25:38.815Z,73.50
2022-08-27T15:28:09.059Z,73.44
2022-08-27T15:30:38.823Z,73.52
2022-08-27T15:33:11.421Z,73.55
2022-08-27T15:35:41.260Z,73.47
2022-08-27T15:38:11.203Z,73.51
2022-08-27T15:40:41.273Z,73.67
2022-08-27T15:43:13.255Z,73.88
2022-08-27T15:45:43.151Z,73.98
2022-08-27T15:48:15.494Z,73.97
2022-08-27T15:50:45.991Z,73.92
2022-08-27T15:53:15.918Z,73.89
2022-08-27T15:55:47.705Z,73.72
2022-08-27T15:58:17.456Z,73.75
2022-08-27T16:00:48.696Z,73.84
2022-08-27T16:03:35.556Z,73.96
2022-08-27T16:06:06.525Z,74.05
2022-08-27T16:08:39.178Z,74.56
2022-08-27T16:11:12.963Z,74.90
2022-08-27T16:13:43.048Z,74.89
2022-08-27T16:16:13.912Z,74.95
2022-08-27T16:18:46.641Z,75.13
2022-08-27T16:21:16.343Z,75.14
2022-08-27T16:23:46.091Z,75.17
2022-08-27T16:26:16.640Z,75.03
2022-08-27T16:28:46.409Z,75.06
2022-08-27T16:31:16.665Z,75.10
2022-08-27T16:33:49.709Z,74.99
2022-08-27T16:36:19.616Z,74.72
2022-08-27T16:38:50.570Z,74.67
2022-08-27T16:41:21.519Z,74.84
2022-08-27T16:43:51.631Z,74.87
2022-08-27T16:46:21.466Z,75.00
2022-08-27T16:49:06.405Z,74.87
2022-08-27T16:51:38.197Z,75.02
2022-08-27T16:54:09.334Z,74.84
2022-08-27T16:56:40.248Z,74.97
2022-08-27T16:59:13.146Z,75.11
2022-08-27T17:01:43.822Z,75.12
2022-08-27T17:04:26.528Z,75.25
2022-08-27T17:07:00.116Z,75.42
2022-08-27T17:09:29.845Z,75.61
2022-08-27T17:12:05.353Z,75.52
2022-08-27T17:14:37.963Z,75.68
2022-08-27T17:17:09.578Z,75.79
2022-08-27T17:19:42.154Z,75.86
2022-08-27T17:22:12.149Z,76.28
2022-08-27T17:24:41.868Z,76.43
2022-08-27T17:27:11.984Z,76.41
2022-08-27T17:29:41.837Z,76.61
2022-08-27T17:32:12.283Z,76.64
2022-08-27T17:34:44.723Z,76.85
2022-08-27T17:37:14.583Z,76.91
2022-08-27T17:39:46.904Z,76.96
2022-08-27T17:42:16.807Z,76.94
2022-08-27T17:44:46.616Z,77.11
2022-08-27T17:47:16.367Z,77.23
2022-08-27T17:49:49.168Z,77.36
2022-08-27T17:52:19.024Z,77.45
2022-08-27T17:54:51.172Z,77.48
2022-08-27T17:57:23.691Z,77.63
2022-08-27T17:59:54.569Z,77.88
2022-08-27T18:02:27.808Z,77.81
2022-08-27T18:05:00.215Z,78.20
2022-08-27T18:07:30.675Z,78.00
2022-08-27T18:10:00.523Z,78.09
2022-08-27T18:12:30.807Z,78.04
2022-08-27T18:15:06.316Z,78.00
2022-08-27T18:17:36.279Z,78.17
2022-08-27T18:20:12.892Z,78.19
2022-08-27T18:22:48.198Z,78.10
2022-08-27T18:25:20.030Z,78.43
2022-08-27T18:27:52.773Z,78.42
2022-08-27T18:30:23.096Z,78.58
2022-08-27T18:32:52.923Z,78.87
2022-08-27T18:35:28.661Z,78.86
2022-08-27T18:37:59.199Z,78.98
2022-08-27T18:40:33.239Z,79.04
2022-08-27T18:43:03.021Z,79.08
2022-08-27T18:45:34.874Z,78.96
2022-08-27T18:48:06.172Z,79.12
2022-08-27T18:50:38.655Z,79.09
2022-08-27T18:53:08.491Z,79.26
2022-08-27T18:55:38.196Z,79.47
2022-08-27T18:58:07.971Z,79.49
2022-08-27T19:00:38.089Z,79.54
2022-08-27T19:03:08.067Z,79.55
2022-08-27T19:05:40.593Z,79.65
2022-08-27T19:08:13.160Z,79.76
2022-08-27T19:10:43.058Z,79.84
2022-08-27T19:13:12.773Z,79.87
2022-08-27T19:15:46.210Z,80.12
2022-08-27T19:18:15.961Z,80.03
2022-08-27T19:20:48.339Z,80.14
2022-08-27T19:23:22.197Z,80.15
2022-08-27T19:25:52.764Z,80.43
2022-08-27T19:28:27.777Z,80.42
2022-08-27T19:30:57.692Z,80.52
2022-08-27T19:33:27.450Z,80.54
2022-08-27T19:36:00.497Z,80.80
2022-08-27T19:38:34.228Z,80.86
2022-08-27T19:41:05.060Z,80.89
2022-08-27T19:43:35.231Z,81.01
2022-08-27T19:46:07.606Z,80.94
2022-08-27T19:48:37.447Z,81.14
2022-08-27T19:51:10.171Z,81.23
2022-08-27T19:53:39.978Z,81.07
2022-08-27T19:56:10.833Z,81.21
2022-08-27T19:58:40.551Z,81.36
2022-08-27T20:01:11.613Z,81.53
2022-08-27T20:03:41.814Z,81.42
2022-08-27T20:06:14.678Z,81.53
2022-08-27T20:08:44.603Z,81.66
2022-08-27T20:11:17.987Z,81.88
2022-08-27T20:13:52.120Z,81.88
2022-08-27T20:16:21.916Z,82.05
2022-08-27T20:18:51.728Z,82.03
2022-08-27T20:21:24.097Z,81.90
2022-08-27T20:23:54.000Z,81.99
2022-08-27T20:26:24.856Z,81.85
2022-08-27T20:28:55.335Z,81.80
2022-08-27T20:31:25.143Z,81.88
2022-08-27T20:33:55.492Z,81.81
2022-08-27T20:36:31.736Z,81.99
2022-08-27T20:39:02.313Z,81.96
2022-08-27T20:41:32.128Z,82.08
2022-08-27T20:44:02.274Z,82.20
2022-08-27T20:46:34.581Z,82.41
2022-08-27T20:49:04.660Z,82.52
2022-08-27T20:52:02.196Z,82.66
2022-08-27T20:54:27.486Z,82.83
2022-08-27T20:56:57.194Z,83.06
2022-08-27T20:59:39.349Z,82.97
2022-08-27T21:02:11.542Z,82.94
2022-08-27T21:04:42.693Z,83.05
2022-08-27T21:07:15.324Z,82.94
2022-08-27T21:09:56.838Z,82.98
2022-08-27T21:12:27.899Z,83.02
2022-08-27T21:14:58.227Z,83.03
2022-08-27T21:17:29.240Z,82.88
2022-08-27T21:19:59.224Z,82.89
2022-08-27T21:22:31.596Z,82.99
2022-08-27T21:25:01.336Z,82.93
2022-08-27T21:27:31.123Z,82.88
2022-08-27T21:30:01.316Z,83.05
2022-08-27T21:32:31.096Z,83.02
2022-08-27T21:35:00.823Z,83.07
2022-08-27T21:37:33.232Z,83.26
2022-08-27T21:40:03.146Z,83.17
2022-08-27T21:42:32.994Z,83.21
2022-08-27T21:45:02.753Z,83.09
2022-08-27T21:47:32.549Z,83.15
2022-08-27T21:50:02.305Z,83.21
2022-08-27T21:52:34.895Z,83.23
2022-08-27T21:55:04.837Z,83.39
2022-08-27T21:57:34.631Z,83.36
2022-08-27T22:00:12.502Z,83.45
2022-08-27T22:02:42.232Z,83.45
2022-08-27T22:05:12.800Z,83.51
2022-08-27T22:07:45.112Z,83.57
2022-08-27T22:10:15.188Z,83.59
2022-08-27T22:12:44.893Z,83.63
2022-08-27T22:15:14.760Z,83.93
2022-08-27T22:17:48.302Z,83.89
2022-08-27T22:20:21.233Z,84.02
2022-08-27T22:22:54.011Z,84.13
2022-08-27T22:25:23.806Z,84.03
2022-08-27T22:27:53.571Z,84.24
2022-08-27T22:30:23.925Z,84.17
2022-08-27T22:32:54.476Z,84.10
2022-08-27T22:35:24.816Z,84.15
2022-08-27T22:37:59.991Z,83.96
2022-08-27T22:40:32.146Z,84.10
2022-08-27T22:43:02.391Z,83.84
2022-08-27T22:45:32.325Z,83.80
2022-08-27T22:48:02.037Z,83.83
2022-08-27T22:50:31.749Z,83.85
2022-08-27T22:53:04.338Z,83.88
2022-08-27T22:55:34.164Z,83.92
2022-08-27T22:58:04.200Z,84.04
2022-08-27T23:00:36.867Z,83.74
2022-08-27T23:03:10.282Z,83.73
2022-08-27T23:05:41.973Z,83.85
2022-08-27T23:08:15.260Z,83.94
2022-08-27T23:10:46.930Z,83.84
2022-08-27T23:13:16.707Z,83.98
2022-08-27T23:15:46.548Z,83.93
2022-08-27T23:18:16.733Z,83.79
2022-08-27T23:20:46.450Z,83.83
2022-08-27T23:23:19.991Z,84.01
2022-08-27T23:26:02.417Z,83.93
2022-08-27T23:28:32.324Z,83.92
2022-08-27T23:31:02.504Z,83.94
2022-08-27T23:33:32.290Z,83.95
2022-08-27T23:36:02.008Z,84.03
2022-08-27T23:38:34.705Z,84.02
2022-08-27T23:41:05.852Z,84.22
2022-08-27T23:43:35.722Z,84.17
2022-08-27T23:46:05.472Z,84.20
2022-08-27T23:48:35.271Z,84.27
2022-08-27T23:51:05.515Z,84.32
2022-08-27T23:53:38.434Z,84.28
2022-08-27T23:56:09.360Z,84.31
2022-08-27T23:58:39.178Z,84.27
